createdAt,value
2023-02-18T00:00:06.383Z,98992.19
2023-02-18T00:05:11.388Z,98931.34
2023-02-18T00:10:16.959Z,98963.16
2023-02-18T00:15:20.469Z,98988.81
2023-02-18T00:20:25.150Z,98992.19
2023-02-18T00:25:28.541Z,98626.66
2023-02-18T00:30:32.035Z,98930.69
2023-02-18T00:35:37.001Z,98975.59
2023-02-18T00:40:41.888Z,98766.78
2023-02-18T00:45:45.197Z,98955.25
2023-02-18T00:50:50.076Z,98964.81
2023-02-18T00:55:53.517Z,98873.44
2023-02-18T01:00:57.082Z,98879.81
2023-02-18T01:06:01.849Z,98954.44
2023-02-18T01:11:06.712Z,98849.34
2023-02-18T01:16:10.872Z,98830.69
2023-02-18T01:21:16.593Z,98753.66
2023-02-18T01:26:20.072Z,98894.09
2023-02-18T01:31:23.647Z,98885.13
2023-02-18T01:36:29.303Z,98941.44
2023-02-18T01:41:33.354Z,98893.84
2023-02-18T01:46:36.731Z,98949.31
2023-02-18T01:51:44.980Z,98766.78
2023-02-18T01:56:51.029Z,98951.81
2023-02-18T02:01:55.576Z,98922.78
2023-02-18T02:07:00.729Z,98939.16
2023-02-18T02:12:20.453Z,98937.56
2023-02-18T02:17:35.279Z,98946.16
2023-02-18T02:23:26.404Z,98912.75
2023-02-18T02:28:56.984Z,98815.56
2023-02-18T02:34:35.945Z,98927.22
2023-02-18T02:39:51.920Z,98915.81
2023-02-18T02:44:58.516Z,98917.94
2023-02-18T02:50:07.624Z,98906.56
2023-02-18T02:55:13.335Z,98842.66
2023-02-18T03:00:22.960Z,98862.75
2023-02-18T03:05:38.686Z,98908.47
2023-02-18T03:10:59.595Z,98891.78
2023-02-18T03:16:14.608Z,98891.25
2023-02-18T03:21:24.362Z,98876.63
2023-02-18T03:26:32.675Z,98828.69
2023-02-18T03:31:40.218Z,98808.78
2023-02-18T03:36:44.552Z,98670.22
2023-02-18T03:41:51.546Z,98881.66
2023-02-18T03:46:55.059Z,98888.31
2023-02-18T03:51:58.587Z,98685.03
2023-02-18T03:57:04.767Z,98755.47
2023-02-18T04:02:08.096Z,98725.44
2023-02-18T04:07:11.460Z,98878.38
2023-02-18T04:12:16.233Z,98853.44
2023-02-18T04:17:20.205Z,98861.38
2023-02-18T04:22:23.624Z,98864.06
2023-02-18T04:27:28.307Z,98865.34
2023-02-18T04:32:31.992Z,98852.03
2023-02-18T04:37:35.388Z,98857.25
2023-02-18T04:42:40.170Z,98858.53
2023-02-18T04:47:44.077Z,98793.91
2023-02-18T04:52:47.458Z,98870.34
2023-02-18T04:57:52.176Z,98834.31
2023-02-18T05:02:55.663Z,98793.00
2023-02-18T05:07:59.012Z,98770.88
2023-02-18T05:13:03.729Z,98865.13
2023-02-18T05:18:07.309Z,98779.00
2023-02-18T05:23:10.753Z,98868.53
2023-02-18T05:28:15.716Z,98861.16
2023-02-18T05:33:19.191Z,98857.72
2023-02-18T05:38:22.681Z,98857.28
2023-02-18T05:43:27.454Z,98535.91
2023-02-18T05:48:30.983Z,98606.38
2023-02-18T05:53:34.506Z,98818.06
2023-02-18T05:58:39.378Z,98561.81
2023-02-18T06:03:42.830Z,98792.13
2023-02-18T06:08:46.248Z,98841.34
2023-02-18T06:13:51.071Z,98764.88
2023-02-18T06:18:54.531Z,98871.16
2023-02-18T06:23:58.055Z,98803.88
2023-02-18T06:29:03.274Z,98828.69
2023-02-18T06:34:06.945Z,98852.28
2023-02-18T06:39:10.395Z,98809.34
2023-02-18T06:44:17.405Z,98862.03
2023-02-18T06:49:20.865Z,98735.44
2023-02-18T06:54:24.981Z,98861.16
2023-02-18T06:59:29.840Z,98868.19
2023-02-18T07:04:33.258Z,98852.81
2023-02-18T07:09:36.737Z,98864.41
2023-02-18T07:14:41.519Z,98854.25
2023-02-18T07:19:44.933Z,98850.75
2023-02-18T07:24:52.565Z,98797.53
2023-02-18T07:29:57.719Z,98854.16
2023-02-18T07:35:01.381Z,98784.28
2023-02-18T07:40:05.380Z,98831.38
2023-02-18T07:45:11.521Z,98832.28
2023-02-18T07:50:14.975Z,98820.03
2023-02-18T07:55:18.713Z,98786.31
2023-02-18T08:00:24.386Z,98817.22
2023-02-18T08:05:27.915Z,98808.56
2023-02-18T08:10:31.292Z,98767.16
2023-02-18T08:15:36.708Z,98722.88
2023-02-18T08:20:40.132Z,98780.06
2023-02-18T08:25:47.788Z,98752.75
2023-02-18T08:30:55.296Z,98818.63
2023-02-18T08:35:58.899Z,98808.72
2023-02-18T08:41:04.043Z,98759.38
2023-02-18T08:46:08.894Z,98775.13
2023-02-18T08:51:23.260Z,98803.53
2023-02-18T08:56:26.697Z,98784.16
2023-02-18T09:01:31.600Z,98813.16
2023-02-18T09:06:38.866Z,98801.16
2023-02-18T09:11:43.158Z,98762.88
2023-02-18T09:16:48.011Z,98653.47
2023-02-18T09:21:53.146Z,98785.84
2023-02-18T09:26:56.606Z,98761.91
2023-02-18T09:32:03.150Z,98758.81
2023-02-18T09:37:06.734Z,98780.69
2023-02-18T09:42:15.905Z,98766.00
2023-02-18T09:47:27.367Z,98600.72
2023-02-18T09:52:34.587Z,98618.41
2023-02-18T09:57:43.994Z,98741.91
2023-02-18T10:02:55.815Z,98743.19
2023-02-18T10:08:03.587Z,98739.38
2023-02-18T10:13:14.164Z,98722.50
2023-02-18T10:23:37.116Z,98756.16
2023-02-18T10:28:40.706Z,98780.97
2023-02-18T10:33:49.580Z,98768.34
2023-02-18T10:39:15.734Z,98774.59
2023-02-18T10:44:31.903Z,98738.19
2023-02-18T10:49:56.636Z,98773.50
2023-02-18T10:55:01.410Z,98763.56
2023-02-18T11:00:18.005Z,98773.72
2023-02-18T11:05:26.162Z,98749.00
2023-02-18T11:10:33.102Z,98747.34
2023-02-18T11:15:54.447Z,98703.94
2023-02-18T11:21:01.426Z,98738.41
2023-02-18T11:26:07.424Z,98510.97
2023-02-18T11:31:17.637Z,98640.13
2023-02-18T11:36:25.349Z,98749.22
2023-02-18T11:41:35.389Z,98692.50
2023-02-18T11:46:38.758Z,98379.38
2023-02-18T11:51:44.307Z,98635.13
2023-02-18T11:56:56.792Z,98697.91
2023-02-18T12:02:14.601Z,98721.16
2023-02-18T12:07:24.867Z,98731.88
2023-02-18T12:12:29.399Z,98722.75
2023-02-18T12:17:50.649Z,98695.34
2023-02-18T12:23:01.414Z,98679.72
2023-02-18T12:28:18.926Z,98595.03
2023-02-18T12:33:35.284Z,98709.06
2023-02-18T12:39:04.947Z,98750.13
2023-02-18T12:44:21.088Z,98684.97
2023-02-18T12:50:15.296Z,98686.28
2023-02-18T12:55:51.003Z,98591.06
2023-02-18T13:01:20.313Z,98691.00
2023-02-18T13:06:46.925Z,98608.53
2023-02-18T13:11:59.888Z,98696.41
2023-02-18T13:17:06.665Z,98658.81
2023-02-18T13:22:13.431Z,98669.03
2023-02-18T13:27:26.159Z,98675.06
2023-02-18T13:32:36.712Z,98672.16
2023-02-18T13:37:54.634Z,98550.41
2023-02-18T13:43:20.148Z,98662.13
2023-02-18T13:48:27.928Z,98610.66
2023-02-18T13:53:36.853Z,98623.94
2023-02-18T13:58:45.423Z,98640.78
2023-02-18T14:03:55.162Z,98632.69
2023-02-18T14:09:38.355Z,98627.66
2023-02-18T14:14:59.336Z,98625.56
2023-02-18T14:20:43.922Z,98638.88
2023-02-18T14:25:57.463Z,98598.16
2023-02-18T14:31:04.445Z,98631.03
2023-02-18T14:36:22.629Z,98627.91
2023-02-18T14:41:39.813Z,98630.38
2023-02-18T14:46:57.650Z,98638.25
2023-02-18T14:52:01.700Z,98635.50
2023-02-18T14:57:09.259Z,98607.25
2023-02-18T15:02:21.082Z,98630.16
2023-02-18T15:07:24.559Z,98567.81
2023-02-18T15:12:28.128Z,98533.31
2023-02-18T15:17:33.205Z,98609.25
2023-02-18T15:22:37.212Z,98630.03
2023-02-18T15:27:44.386Z,98394.31
2023-02-18T15:32:52.573Z,98567.34
2023-02-18T15:37:58.680Z,98579.56
2023-02-18T15:43:05.612Z,98544.09
2023-02-18T15:48:24.287Z,98602.66
2023-02-18T15:53:27.810Z,98554.41
2023-02-18T15:58:32.943Z,98590.03
2023-02-18T16:03:47.237Z,98621.84
2023-02-18T16:08:59.178Z,98611.03
2023-02-18T16:14:02.885Z,98491.63
2023-02-18T16:19:07.828Z,98598.59
2023-02-18T16:24:25.463Z,98593.41
2023-02-18T16:29:38.382Z,98597.56
2023-02-18T16:34:43.899Z,98580.75
2023-02-18T16:39:49.412Z,98528.00
2023-02-18T16:44:52.888Z,98621.41
2023-02-18T16:49:58.855Z,98574.91
2023-02-18T16:55:02.311Z,98547.44
2023-02-18T17:00:06.539Z,98584.41
2023-02-18T17:05:26.470Z,98619.66
2023-02-18T17:10:30.582Z,98640.84
2023-02-18T17:15:36.362Z,98652.50
2023-02-18T17:20:41.272Z,98658.66
2023-02-18T17:25:45.516Z,98657.59
2023-02-18T17:30:54.301Z,98675.19
2023-02-18T17:35:59.144Z,98673.31
2023-02-18T17:41:02.639Z,98675.91
2023-02-18T17:46:07.068Z,98682.78
2023-02-18T17:51:23.765Z,98710.16
2023-02-18T17:56:27.280Z,98681.84
2023-02-18T18:01:30.719Z,98647.78
2023-02-18T18:06:36.295Z,98537.38
2023-02-18T18:11:39.859Z,98719.66
2023-02-18T18:16:43.352Z,98709.97
2023-02-18T18:21:48.887Z,98676.31
2023-02-18T18:26:52.265Z,98734.44
2023-02-18T18:31:55.691Z,98742.38
2023-02-18T18:37:00.535Z,98734.00
2023-02-18T18:42:03.986Z,98731.50
2023-02-18T18:47:07.430Z,98745.38
2023-02-18T18:52:17.465Z,98742.69
2023-02-18T18:57:20.972Z,98697.53
2023-02-18T19:02:24.497Z,98717.72
2023-02-18T19:07:29.174Z,98755.63
2023-02-18T19:12:32.663Z,98609.56
2023-02-18T19:17:36.052Z,98762.22
2023-02-18T19:22:40.843Z,98764.69
2023-02-18T19:27:46.261Z,98770.38
2023-02-18T19:32:50.993Z,98771.81
2023-02-18T19:37:56.573Z,98722.19
2023-02-18T19:43:00.052Z,98650.31
2023-02-18T19:48:11.299Z,98772.06
2023-02-18T19:53:16.168Z,98699.38
2023-02-18T19:58:19.712Z,98539.53
2023-02-18T20:03:23.219Z,98776.34
2023-02-18T20:08:27.944Z,98769.78
2023-02-18T20:13:31.289Z,98532.97
2023-02-18T20:18:34.730Z,98756.63
2023-02-18T20:23:39.554Z,98739.13
2023-02-18T20:28:50.108Z,98767.38
2023-02-18T20:33:57.145Z,98759.53
2023-02-18T20:39:14.508Z,98760.91
2023-02-18T20:44:20.856Z,98685.06
2023-02-18T20:49:24.402Z,98744.28
2023-02-18T20:54:29.452Z,98751.34
2023-02-18T20:59:33.952Z,98754.28
2023-02-18T21:04:41.543Z,98719.16
2023-02-18T21:09:46.373Z,98704.84
2023-02-18T21:14:49.833Z,98763.09
2023-02-18T21:19:53.347Z,98694.88
2023-02-18T21:24:59.204Z,98725.53
2023-02-18T21:30:04.203Z,98721.47
2023-02-18T21:35:07.937Z,98761.72
2023-02-18T21:40:13.035Z,98753.16
2023-02-18T21:45:20.301Z,98553.00
2023-02-18T21:50:23.718Z,98708.19
2023-02-18T21:55:28.521Z,98749.38
2023-02-18T22:00:31.988Z,98748.38
2023-02-18T22:05:36.475Z,98752.91
2023-02-18T22:10:41.222Z,98741.47
2023-02-18T22:15:44.725Z,98736.50
2023-02-18T22:20:48.499Z,98676.91
2023-02-18T22:25:53.333Z,98688.53
2023-02-18T22:30:56.689Z,98631.69
2023-02-18T22:36:01.707Z,98684.13
2023-02-18T22:41:07.933Z,98691.63
2023-02-18T22:46:13.282Z,98678.50
2023-02-18T22:51:19.360Z,98716.75
2023-02-18T22:56:25.720Z,98676.88
2023-02-18T23:01:31.104Z,98675.38
2023-02-18T23:06:35.721Z,98596.75
2023-02-18T23:11:40.796Z,98698.22
2023-02-18T23:17:01.446Z,98668.66
2023-02-18T23:22:05.643Z,98686.81
2023-02-18T23:27:11.974Z,98684.72
2023-02-18T23:32:15.377Z,98682.34
2023-02-18T23:37:38.738Z,98608.38
2023-02-18T23:42:43.474Z,98671.31
2023-02-18T23:47:47.026Z,98663.75
2023-02-18T23:52:51.288Z,98658.00
2023-02-18T23:57:56.050Z,98499.28
